sensor_id;sensor_type;location;lat;lon;timestamp;P1;durP1;ratioP1;P2;durP2;ratioP2
20844;SDS011;10583;49.084;8.646;2023-04-24T00:00:53;0.70;;;0.70;;
20844;SDS011;10583;49.084;8.646;2023-04-24T00:03:21;0.80;;;0.80;;
20844;SDS011;10583;49.084;8.646;2023-04-24T00:05:49;0.50;;;0.50;;
20844;SDS011;10583;49.084;8.646;2023-04-24T00:08:17;1.00;;;1.00;;
20844;SDS011;10583;49.084;8.646;2023-04-24T00:10:43;0.70;;;0.70;;
20844;SDS011;10583;49.084;8.646;2023-04-24T00:13:10;0.70;;;0.70;;
20844;SDS011;10583;49.084;8.646;2023-04-24T00:15:37;0.60;;;0.60;;
20844;SDS011;10583;49.084;8.646;2023-04-24T00:18:04;0.60;;;0.60;;
20844;SDS011;10583;49.084;8.646;2023-04-24T00:20:31;0.80;;;0.80;;
20844;SDS011;10583;49.084;8.646;2023-04-24T00:22:59;0.60;;;0.60;;
20844;SDS011;10583;49.084;8.646;2023-04-24T00:25:26;0.60;;;0.60;;
20844;SDS011;10583;49.084;8.646;2023-04-24T00:27:53;0.60;;;0.60;;
20844;SDS011;10583;49.084;8.646;2023-04-24T00:30:19;0.60;;;0.60;;
20844;SDS011;10583;49.084;8.646;2023-04-24T00:32:46;0.83;;;0.83;;
20844;SDS011;10583;49.084;8.646;2023-04-24T00:35:13;0.93;;;0.93;;
20844;SDS011;10583;49.084;8.646;2023-04-24T00:37:40;0.73;;;0.73;;
20844;SDS011;10583;49.084;8.646;2023-04-24T00:40:09;0.90;;;0.90;;
20844;SDS011;10583;49.084;8.646;2023-04-24T00:42:37;0.70;;;0.70;;
20844;SDS011;10583;49.084;8.646;2023-04-24T00:45:05;0.60;;;0.60;;
20844;SDS011;10583;49.084;8.646;2023-04-24T00:47:33;0.77;;;0.77;;
20844;SDS011;10583;49.084;8.646;2023-04-24T00:50:00;0.60;;;0.60;;
20844;SDS011;10583;49.084;8.646;2023-04-24T00:52:28;0.60;;;0.60;;
20844;SDS011;10583;49.084;8.646;2023-04-24T00:54:56;0.60;;;0.60;;
20844;SDS011;10583;49.084;8.646;2023-04-24T00:57:24;0.70;;;0.70;;
20844;SDS011;10583;49.084;8.646;2023-04-24T00:59:51;0.50;;;0.50;;
20844;SDS011;10583;49.084;8.646;2023-04-24T01:02:18;0.93;;;0.93;;
20844;SDS011;10583;49.084;8.646;2023-04-24T01:04:45;0.47;;;0.47;;
20844;SDS011;10583;49.084;8.646;2023-04-24T01:07:12;0.80;;;0.80;;
20844;SDS011;10583;49.084;8.646;2023-04-24T01:09:40;0.60;;;0.60;;
20844;SDS011;10583;49.084;8.646;2023-04-24T01:12:07;0.87;;;0.87;;
20844;SDS011;10583;49.084;8.646;2023-04-24T01:14:35;0.90;;;0.90;;
20844;SDS011;10583;49.084;8.646;2023-04-24T01:17:03;0.90;;;0.90;;
20844;SDS011;10583;49.084;8.646;2023-04-24T01:19:29;0.60;;;0.60;;
20844;SDS011;10583;49.084;8.646;2023-04-24T01:21:57;1.00;;;1.00;;
20844;SDS011;10583;49.084;8.646;2023-04-24T01:24:29;0.87;;;0.87;;
20844;SDS011;10583;49.084;8.646;2023-04-24T01:26:56;0.70;;;0.70;;
20844;SDS011;10583;49.084;8.646;2023-04-24T01:29:23;0.70;;;0.70;;
20844;SDS011;10583;49.084;8.646;2023-04-24T01:31:50;0.67;;;0.67;;
20844;SDS011;10583;49.084;8.646;2023-04-24T01:34:17;0.80;;;0.80;;
20844;SDS011;10583;49.084;8.646;2023-04-24T01:36:44;0.77;;;0.77;;
20844;SDS011;10583;49.084;8.646;2023-04-24T01:39:12;0.73;;;0.73;;
20844;SDS011;10583;49.084;8.646;2023-04-24T01:41:41;0.70;;;0.70;;
20844;SDS011;10583;49.084;8.646;2023-04-24T01:44:08;0.60;;;0.60;;
20844;SDS011;10583;49.084;8.646;2023-04-24T01:46:35;0.70;;;0.70;;
20844;SDS011;10583;49.084;8.646;2023-04-24T01:49:02;0.80;;;0.80;;
20844;SDS011;10583;49.084;8.646;2023-04-24T01:51:28;1.00;;;1.00;;
20844;SDS011;10583;49.084;8.646;2023-04-24T01:53:56;0.80;;;0.80;;
20844;SDS011;10583;49.084;8.646;2023-04-24T01:56:23;0.53;;;0.53;;
20844;SDS011;10583;49.084;8.646;2023-04-24T01:58:52;0.77;;;0.77;;
20844;SDS011;10583;49.084;8.646;2023-04-24T02:01:20;0.93;;;0.93;;
20844;SDS011;10583;49.084;8.646;2023-04-24T02:03:47;0.90;;;0.90;;
20844;SDS011;10583;49.084;8.646;2023-04-24T02:06:13;0.70;;;0.70;;
20844;SDS011;10583;49.084;8.646;2023-04-24T02:08:40;0.90;;;0.90;;
20844;SDS011;10583;49.084;8.646;2023-04-24T02:11:08;1.13;;;1.13;;
20844;SDS011;10583;49.084;8.646;2023-04-24T02:13:35;0.63;;;0.63;;
20844;SDS011;10583;49.084;8.646;2023-04-24T02:16:03;0.83;;;0.83;;
20844;SDS011;10583;49.084;8.646;2023-04-24T02:18:30;0.70;;;0.70;;
20844;SDS011;10583;49.084;8.646;2023-04-24T02:20:56;0.73;;;0.73;;
20844;SDS011;10583;49.084;8.646;2023-04-24T02:23:23;0.90;;;0.90;;
20844;SDS011;10583;49.084;8.646;2023-04-24T02:25:50;0.70;;;0.70;;
20844;SDS011;10583;49.084;8.646;2023-04-24T02:30:55;0.60;;;0.60;;
20844;SDS011;10583;49.084;8.646;2023-04-24T02:33:23;0.73;;;0.73;;
20844;SDS011;10583;49.084;8.646;2023-04-24T02:35:50;0.80;;;0.80;;
20844;SDS011;10583;49.084;8.646;2023-04-24T02:38:17;0.80;;;0.80;;
20844;SDS011;10583;49.084;8.646;2023-04-24T02:40:43;0.80;;;0.80;;
20844;SDS011;10583;49.084;8.646;2023-04-24T02:43:10;0.80;;;0.80;;
20844;SDS011;10583;49.084;8.646;2023-04-24T02:45:37;0.70;;;0.70;;
20844;SDS011;10583;49.084;8.646;2023-04-24T02:48:03;1.03;;;1.03;;
20844;SDS011;10583;49.084;8.646;2023-04-24T02:50:31;0.90;;;0.90;;
20844;SDS011;10583;49.084;8.646;2023-04-24T02:52:58;0.63;;;0.63;;
20844;SDS011;10583;49.084;8.646;2023-04-24T02:55:25;0.77;;;0.77;;
20844;SDS011;10583;49.084;8.646;2023-04-24T02:57:52;0.80;;;0.80;;
20844;SDS011;10583;49.084;8.646;2023-04-24T03:00:30;0.80;;;0.80;;
20844;SDS011;10583;49.084;8.646;2023-04-24T03:02:56;0.70;;;0.70;;
20844;SDS011;10583;49.084;8.646;2023-04-24T03:05:23;0.80;;;0.80;;
20844;SDS011;10583;49.084;8.646;2023-04-24T03:07:51;0.63;;;0.63;;
20844;SDS011;10583;49.084;8.646;2023-04-24T03:10:18;0.70;;;0.70;;
20844;SDS011;10583;49.084;8.646;2023-04-24T03:12:45;0.80;;;0.80;;
20844;SDS011;10583;49.084;8.646;2023-04-24T03:15:12;1.07;;;1.07;;
20844;SDS011;10583;49.084;8.646;2023-04-24T03:17:38;1.10;;;1.10;;
20844;SDS011;10583;49.084;8.646;2023-04-24T03:20:05;0.90;;;0.90;;
20844;SDS011;10583;49.084;8.646;2023-04-24T03:22:33;0.70;;;0.70;;
20844;SDS011;10583;49.084;8.646;2023-04-24T03:25:02;0.90;;;0.90;;
20844;SDS011;10583;49.084;8.646;2023-04-24T03:27:29;1.00;;;1.00;;
20844;SDS011;10583;49.084;8.646;2023-04-24T03:29:56;0.87;;;0.87;;
20844;SDS011;10583;49.084;8.646;2023-04-24T03:32:22;0.70;;;0.70;;
20844;SDS011;10583;49.084;8.646;2023-04-24T03:34:49;0.73;;;0.73;;
20844;SDS011;10583;49.084;8.646;2023-04-24T03:37:16;0.93;;;0.93;;
20844;SDS011;10583;49.084;8.646;2023-04-24T03:39:43;1.27;;;1.27;;
20844;SDS011;10583;49.084;8.646;2023-04-24T03:42:11;1.23;;;1.23;;
20844;SDS011;10583;49.084;8.646;2023-04-24T03:44:38;1.50;;;1.50;;
20844;SDS011;10583;49.084;8.646;2023-04-24T03:47:05;1.70;;;1.70;;
20844;SDS011;10583;49.084;8.646;2023-04-24T03:49:31;1.37;;;1.37;;
20844;SDS011;10583;49.084;8.646;2023-04-24T03:51:58;1.90;;;1.90;;
20844;SDS011;10583;49.084;8.646;2023-04-24T03:54:25;1.40;;;1.40;;
20844;SDS011;10583;49.084;8.646;2023-04-24T03:56:52;1.97;;;1.97;;
20844;SDS011;10583;49.084;8.646;2023-04-24T03:59:20;1.87;;;1.87;;
20844;SDS011;10583;49.084;8.646;2023-04-24T04:01:47;2.17;;;2.17;;
20844;SDS011;10583;49.084;8.646;2023-04-24T04:04:13;1.70;;;1.70;;
20844;SDS011;10583;49.084;8.646;2023-04-24T04:06:40;1.57;;;1.57;;
20844;SDS011;10583;49.084;8.646;2023-04-24T04:09:07;1.80;;;1.80;;
20844;SDS011;10583;49.084;8.646;2023-04-24T04:11:34;1.60;;;1.60;;
20844;SDS011;10583;49.084;8.646;2023-04-24T04:14:01;1.90;;;1.90;;
20844;SDS011;10583;49.084;8.646;2023-04-24T04:16:29;1.93;;;1.93;;
20844;SDS011;10583;49.084;8.646;2023-04-24T04:18:56;1.77;;;1.77;;
20844;SDS011;10583;49.084;8.646;2023-04-24T04:21:23;1.50;;;1.50;;
20844;SDS011;10583;49.084;8.646;2023-04-24T04:23:51;2.17;;;2.17;;
20844;SDS011;10583;49.084;8.646;2023-04-24T04:26:18;1.77;;;1.77;;
20844;SDS011;10583;49.084;8.646;2023-04-24T04:28:46;2.17;;;2.17;;
20844;SDS011;10583;49.084;8.646;2023-04-24T04:31:13;1.80;;;1.80;;
20844;SDS011;10583;49.084;8.646;2023-04-24T04:33:51;1.80;;;1.80;;
20844;SDS011;10583;49.084;8.646;2023-04-24T04:36:18;1.80;;;1.80;;
20844;SDS011;10583;49.084;8.646;2023-04-24T04:38:44;2.27;;;2.27;;
20844;SDS011;10583;49.084;8.646;2023-04-24T04:41:11;1.97;;;1.97;;
20844;SDS011;10583;49.084;8.646;2023-04-24T04:43:38;1.70;;;1.70;;
20844;SDS011;10583;49.084;8.646;2023-04-24T04:46:05;1.67;;;1.67;;
20844;SDS011;10583;49.084;8.646;2023-04-24T04:48:33;1.77;;;1.77;;
20844;SDS011;10583;49.084;8.646;2023-04-24T04:51:01;1.63;;;1.63;;
20844;SDS011;10583;49.084;8.646;2023-04-24T04:53:28;1.80;;;1.80;;
20844;SDS011;10583;49.084;8.646;2023-04-24T04:55:54;1.40;;;1.40;;
20844;SDS011;10583;49.084;8.646;2023-04-24T04:58:22;1.40;;;1.40;;
20844;SDS011;10583;49.084;8.646;2023-04-24T05:00:49;1.70;;;1.70;;
20844;SDS011;10583;49.084;8.646;2023-04-24T05:03:15;1.40;;;1.40;;
20844;SDS011;10583;49.084;8.646;2023-04-24T05:05:42;1.77;;;1.77;;
20844;SDS011;10583;49.084;8.646;2023-04-24T05:08:10;1.90;;;1.90;;
20844;SDS011;10583;49.084;8.646;2023-04-24T05:10:37;1.87;;;1.87;;
20844;SDS011;10583;49.084;8.646;2023-04-24T05:13:04;1.93;;;1.93;;
20844;SDS011;10583;49.084;8.646;2023-04-24T05:15:30;2.17;;;2.17;;
20844;SDS011;10583;49.084;8.646;2023-04-24T05:17:57;1.77;;;1.77;;
20844;SDS011;10583;49.084;8.646;2023-04-24T05:20:24;2.07;;;2.07;;
20844;SDS011;10583;49.084;8.646;2023-04-24T05:22:50;1.90;;;1.90;;
20844;SDS011;10583;49.084;8.646;2023-04-24T05:25:18;1.83;;;1.83;;
20844;SDS011;10583;49.084;8.646;2023-04-24T05:27:46;2.00;;;2.00;;
20844;SDS011;10583;49.084;8.646;2023-04-24T05:30:13;1.60;;;1.60;;
20844;SDS011;10583;49.084;8.646;2023-04-24T05:32:40;2.03;;;2.03;;
20844;SDS011;10583;49.084;8.646;2023-04-24T05:35:07;1.70;;;1.70;;
20844;SDS011;10583;49.084;8.646;2023-04-24T05:37:34;2.00;;;2.00;;
20844;SDS011;10583;49.084;8.646;2023-04-24T05:40:00;1.83;;;1.83;;
20844;SDS011;10583;49.084;8.646;2023-04-24T05:42:31;2.23;;;2.23;;
20844;SDS011;10583;49.084;8.646;2023-04-24T05:44:58;2.23;;;2.23;;
20844;SDS011;10583;49.084;8.646;2023-04-24T05:47:24;1.90;;;1.90;;
20844;SDS011;10583;49.084;8.646;2023-04-24T05:49:51;2.30;;;2.30;;
20844;SDS011;10583;49.084;8.646;2023-04-24T05:52:26;2.10;;;2.10;;
20844;SDS011;10583;49.084;8.646;2023-04-24T05:54:52;2.00;;;2.00;;
20844;SDS011;10583;49.084;8.646;2023-04-24T05:57:19;1.90;;;1.90;;
20844;SDS011;10583;49.084;8.646;2023-04-24T05:59:47;2.10;;;2.10;;
20844;SDS011;10583;49.084;8.646;2023-04-24T06:02:14;2.00;;;2.00;;
20844;SDS011;10583;49.084;8.646;2023-04-24T06:04:41;1.73;;;1.73;;
20844;SDS011;10583;49.084;8.646;2023-04-24T06:07:08;1.70;;;1.70;;
20844;SDS011;10583;49.084;8.646;2023-04-24T06:09:36;1.70;;;1.70;;
20844;SDS011;10583;49.084;8.646;2023-04-24T06:12:03;1.67;;;1.67;;
20844;SDS011;10583;49.084;8.646;2023-04-24T06:14:30;1.60;;;1.60;;
20844;SDS011;10583;49.084;8.646;2023-04-24T06:16:58;1.50;;;1.50;;
20844;SDS011;10583;49.084;8.646;2023-04-24T06:19:24;1.40;;;1.40;;
20844;SDS011;10583;49.084;8.646;2023-04-24T06:21:51;1.80;;;1.80;;
20844;SDS011;10583;49.084;8.646;2023-04-24T06:24:18;1.80;;;1.80;;
20844;SDS011;10583;49.084;8.646;2023-04-24T06:26:44;1.60;;;1.60;;
20844;SDS011;10583;49.084;8.646;2023-04-24T06:29:11;1.70;;;1.70;;
20844;SDS011;10583;49.084;8.646;2023-04-24T06:31:37;1.90;;;1.90;;
20844;SDS011;10583;49.084;8.646;2023-04-24T06:34:06;1.80;;;1.80;;
20844;SDS011;10583;49.084;8.646;2023-04-24T06:36:33;2.03;;;2.03;;
20844;SDS011;10583;49.084;8.646;2023-04-24T06:39:00;1.90;;;1.90;;
20844;SDS011;10583;49.084;8.646;2023-04-24T06:41:27;1.80;;;1.80;;
20844;SDS011;10583;49.084;8.646;2023-04-24T06:43:54;1.90;;;1.90;;
20844;SDS011;10583;49.084;8.646;2023-04-24T06:46:21;2.00;;;2.00;;
20844;SDS011;10583;49.084;8.646;2023-04-24T06:48:50;1.93;;;1.93;;
20844;SDS011;10583;49.084;8.646;2023-04-24T06:51:21;2.20;;;2.20;;
20844;SDS011;10583;49.084;8.646;2023-04-24T06:53:49;1.90;;;1.90;;
20844;SDS011;10583;49.084;8.646;2023-04-24T06:56:15;1.90;;;1.90;;
20844;SDS011;10583;49.084;8.646;2023-04-24T06:58:42;1.70;;;1.70;;
20844;SDS011;10583;49.084;8.646;2023-04-24T07:01:10;1.80;;;1.80;;
20844;SDS011;10583;49.084;8.646;2023-04-24T07:03:36;1.80;;;1.80;;
20844;SDS011;10583;49.084;8.646;2023-04-24T07:06:04;1.70;;;1.70;;
20844;SDS011;10583;49.084;8.646;2023-04-24T07:08:33;1.80;;;1.80;;
20844;SDS011;10583;49.084;8.646;2023-04-24T07:11:01;1.90;;;1.90;;
20844;SDS011;10583;49.084;8.646;2023-04-24T07:13:29;1.80;;;1.80;;
20844;SDS011;10583;49.084;8.646;2023-04-24T07:15:55;1.80;;;1.80;;
20844;SDS011;10583;49.084;8.646;2023-04-24T07:18:22;1.70;;;1.70;;
20844;SDS011;10583;49.084;8.646;2023-04-24T07:20:49;1.77;;;1.77;;
20844;SDS011;10583;49.084;8.646;2023-04-24T07:23:16;1.63;;;1.63;;
20844;SDS011;10583;49.084;8.646;2023-04-24T07:25:44;1.60;;;1.60;;
20844;SDS011;10583;49.084;8.646;2023-04-24T07:28:11;1.70;;;1.70;;
20844;SDS011;10583;49.084;8.646;2023-04-24T07:30:38;1.57;;;1.57;;
20844;SDS011;10583;49.084;8.646;2023-04-24T07:33:05;1.60;;;1.60;;
20844;SDS011;10583;49.084;8.646;2023-04-24T07:35:32;1.60;;;1.60;;
20844;SDS011;10583;49.084;8.646;2023-04-24T07:37:59;1.57;;;1.57;;
20844;SDS011;10583;49.084;8.646;2023-04-24T07:40:26;1.50;;;1.50;;
20844;SDS011;10583;49.084;8.646;2023-04-24T07:42:54;1.60;;;1.60;;
20844;SDS011;10583;49.084;8.646;2023-04-24T07:45:20;1.60;;;1.60;;
20844;SDS011;10583;49.084;8.646;2023-04-24T07:47:48;1.87;;;1.87;;
20844;SDS011;10583;49.084;8.646;2023-04-24T07:50:14;1.37;;;1.37;;
20844;SDS011;10583;49.084;8.646;2023-04-24T07:52:41;1.50;;;1.50;;
20844;SDS011;10583;49.084;8.646;2023-04-24T07:55:08;1.80;;;1.80;;
20844;SDS011;10583;49.084;8.646;2023-04-24T07:57:34;1.80;;;1.80;;
20844;SDS011;10583;49.084;8.646;2023-04-24T08:00:04;1.50;;;1.50;;
20844;SDS011;10583;49.084;8.646;2023-04-24T08:02:31;1.50;;;1.50;;
20844;SDS011;10583;49.084;8.646;2023-04-24T08:04:58;1.70;;;1.70;;
20844;SDS011;10583;49.084;8.646;2023-04-24T08:07:25;1.63;;;1.63;;
20844;SDS011;10583;49.084;8.646;2023-04-24T08:09:51;1.33;;;1.33;;
20844;SDS011;10583;49.084;8.646;2023-04-24T08:12:18;1.20;;;1.20;;
20844;SDS011;10583;49.084;8.646;2023-04-24T08:14:45;1.20;;;1.20;;
20844;SDS011;10583;49.084;8.646;2023-04-24T08:17:13;0.87;;;0.87;;
20844;SDS011;10583;49.084;8.646;2023-04-24T08:19:40;1.00;;;1.00;;
20844;SDS011;10583;49.084;8.646;2023-04-24T08:22:12;0.90;;;0.90;;
20844;SDS011;10583;49.084;8.646;2023-04-24T08:24:39;0.90;;;0.90;;
20844;SDS011;10583;49.084;8.646;2023-04-24T08:27:06;0.80;;;0.80;;
20844;SDS011;10583;49.084;8.646;2023-04-24T08:29:32;0.90;;;0.90;;
20844;SDS011;10583;49.084;8.646;2023-04-24T08:31:59;1.07;;;1.07;;
20844;SDS011;10583;49.084;8.646;2023-04-24T08:34:27;1.00;;;1.00;;
20844;SDS011;10583;49.084;8.646;2023-04-24T08:36:54;0.90;;;0.90;;
20844;SDS011;10583;49.084;8.646;2023-04-24T08:39:20;0.93;;;0.93;;
20844;SDS011;10583;49.084;8.646;2023-04-24T08:41:47;1.00;;;1.00;;
20844;SDS011;10583;49.084;8.646;2023-04-24T08:44:14;1.40;;;1.40;;
20844;SDS011;10583;49.084;8.646;2023-04-24T08:46:42;1.30;;;1.30;;
20844;SDS011;10583;49.084;8.646;2023-04-24T08:49:10;1.20;;;1.20;;
20844;SDS011;10583;49.084;8.646;2023-04-24T08:51:39;1.60;;;1.60;;
20844;SDS011;10583;49.084;8.646;2023-04-24T08:54:06;1.20;;;1.20;;
20844;SDS011;10583;49.084;8.646;2023-04-24T08:56:33;1.00;;;1.00;;
20844;SDS011;10583;49.084;8.646;2023-04-24T08:59:04;0.93;;;0.93;;
20844;SDS011;10583;49.084;8.646;2023-04-24T09:01:31;0.90;;;0.90;;
20844;SDS011;10583;49.084;8.646;2023-04-24T09:04:00;0.70;;;0.70;;
20844;SDS011;10583;49.084;8.646;2023-04-24T09:06:28;0.80;;;0.80;;
20844;SDS011;10583;49.084;8.646;2023-04-24T09:08:58;0.90;;;0.90;;
20844;SDS011;10583;49.084;8.646;2023-04-24T09:11:27;0.90;;;0.90;;
20844;SDS011;10583;49.084;8.646;2023-04-24T09:13:54;0.83;;;0.83;;
20844;SDS011;10583;49.084;8.646;2023-04-24T09:16:21;1.00;;;1.00;;
20844;SDS011;10583;49.084;8.646;2023-04-24T09:18:49;0.90;;;0.90;;
20844;SDS011;10583;49.084;8.646;2023-04-24T09:21:15;1.23;;;1.23;;
20844;SDS011;10583;49.084;8.646;2023-04-24T09:23:42;1.30;;;1.30;;
20844;SDS011;10583;49.084;8.646;2023-04-24T09:26:11;1.50;;;1.50;;
20844;SDS011;10583;49.084;8.646;2023-04-24T09:28:41;1.50;;;1.50;;
20844;SDS011;10583;49.084;8.646;2023-04-24T09:31:09;1.20;;;1.20;;
20844;SDS011;10583;49.084;8.646;2023-04-24T09:33:38;1.50;;;1.50;;
20844;SDS011;10583;49.084;8.646;2023-04-24T09:36:05;1.40;;;1.40;;
20844;SDS011;10583;49.084;8.646;2023-04-24T09:38:33;1.63;;;1.63;;
20844;SDS011;10583;49.084;8.646;2023-04-24T09:41:00;1.40;;;1.40;;
20844;SDS011;10583;49.084;8.646;2023-04-24T09:43:29;1.90;;;1.90;;
20844;SDS011;10583;49.084;8.646;2023-04-24T09:45:58;1.90;;;1.90;;
20844;SDS011;10583;49.084;8.646;2023-04-24T09:48:32;2.10;;;2.10;;
20844;SDS011;10583;49.084;8.646;2023-04-24T09:50:59;1.93;;;1.93;;
20844;SDS011;10583;49.084;8.646;2023-04-24T09:53:28;2.43;;;2.43;;
20844;SDS011;10583;49.084;8.646;2023-04-24T09:55:55;2.80;;;2.80;;
20844;SDS011;10583;49.084;8.646;2023-04-24T09:58:25;2.70;;;2.70;;
20844;SDS011;10583;49.084;8.646;2023-04-24T10:00:54;2.77;;;2.77;;
20844;SDS011;10583;49.084;8.646;2023-04-24T10:03:23;2.60;;;2.60;;
20844;SDS011;10583;49.084;8.646;2023-04-24T10:05:52;2.63;;;2.63;;
20844;SDS011;10583;49.084;8.646;2023-04-24T10:08:20;2.50;;;2.50;;
20844;SDS011;10583;49.084;8.646;2023-04-24T10:10:47;2.70;;;2.70;;
20844;SDS011;10583;49.084;8.646;2023-04-24T10:13:14;2.40;;;2.40;;
20844;SDS011;10583;49.084;8.646;2023-04-24T10:15:41;2.40;;;2.40;;
20844;SDS011;10583;49.084;8.646;2023-04-24T10:18:09;2.33;;;2.33;;
20844;SDS011;10583;49.084;8.646;2023-04-24T10:20:38;2.30;;;2.30;;
20844;SDS011;10583;49.084;8.646;2023-04-24T10:23:05;2.40;;;2.40;;
20844;SDS011;10583;49.084;8.646;2023-04-24T10:25:33;2.53;;;2.53;;
20844;SDS011;10583;49.084;8.646;2023-04-24T10:28:00;2.00;;;2.00;;
20844;SDS011;10583;49.084;8.646;2023-04-24T10:30:28;1.80;;;1.80;;
20844;SDS011;10583;49.084;8.646;2023-04-24T10:32:59;2.03;;;2.03;;
20844;SDS011;10583;49.084;8.646;2023-04-24T10:35:29;1.90;;;1.90;;
20844;SDS011;10583;49.084;8.646;2023-04-24T10:37:58;1.87;;;1.87;;
20844;SDS011;10583;49.084;8.646;2023-04-24T10:40:30;1.70;;;1.70;;
20844;SDS011;10583;49.084;8.646;2023-04-24T10:42:58;1.70;;;1.70;;
20844;SDS011;10583;49.084;8.646;2023-04-24T10:45:26;1.53;;;1.53;;
20844;SDS011;10583;49.084;8.646;2023-04-24T10:47:58;2.00;;;2.00;;
20844;SDS011;10583;49.084;8.646;2023-04-24T10:50:28;2.17;;;2.17;;
20844;SDS011;10583;49.084;8.646;2023-04-24T10:53:12;2.30;;;2.30;;
20844;SDS011;10583;49.084;8.646;2023-04-24T10:55:42;2.00;;;2.00;;
20844;SDS011;10583;49.084;8.646;2023-04-24T10:58:10;2.20;;;2.20;;
20844;SDS011;10583;49.084;8.646;2023-04-24T11:00:37;2.13;;;2.13;;
20844;SDS011;10583;49.084;8.646;2023-04-24T11:03:04;2.53;;;2.53;;
20844;SDS011;10583;49.084;8.646;2023-04-24T11:08:22;2.33;;;2.33;;
20844;SDS011;10583;49.084;8.646;2023-04-24T11:10:54;2.20;;;2.20;;
20844;SDS011;10583;49.084;8.646;2023-04-24T11:13:23;1.83;;;1.83;;
20844;SDS011;10583;49.084;8.646;2023-04-24T11:18:41;2.47;;;2.47;;
20844;SDS011;10583;49.084;8.646;2023-04-24T11:21:12;2.37;;;2.37;;
20844;SDS011;10583;49.084;8.646;2023-04-24T11:23:39;2.00;;;2.00;;
20844;SDS011;10583;49.084;8.646;2023-04-24T11:26:09;2.27;;;2.27;;
20844;SDS011;10583;49.084;8.646;2023-04-24T11:28:37;2.30;;;2.30;;
20844;SDS011;10583;49.084;8.646;2023-04-24T11:34:07;2.00;;;2.00;;
20844;SDS011;10583;49.084;8.646;2023-04-24T11:36:36;2.20;;;2.20;;
20844;SDS011;10583;49.084;8.646;2023-04-24T11:39:03;2.50;;;2.50;;
20844;SDS011;10583;49.084;8.646;2023-04-24T11:41:30;2.40;;;2.40;;
20844;SDS011;10583;49.084;8.646;2023-04-24T11:43:57;2.80;;;2.80;;
20844;SDS011;10583;49.084;8.646;2023-04-24T11:46:27;2.80;;;2.80;;
20844;SDS011;10583;49.084;8.646;2023-04-24T11:48:54;4.50;;;4.50;;
20844;SDS011;10583;49.084;8.646;2023-04-24T11:51:21;2.77;;;2.77;;
20844;SDS011;10583;49.084;8.646;2023-04-24T11:53:50;3.33;;;3.33;;
20844;SDS011;10583;49.084;8.646;2023-04-24T11:56:17;3.50;;;3.50;;
20844;SDS011;10583;49.084;8.646;2023-04-24T11:58:45;2.90;;;2.90;;
20844;SDS011;10583;49.084;8.646;2023-04-24T12:01:11;2.87;;;2.87;;
20844;SDS011;10583;49.084;8.646;2023-04-24T12:03:38;3.17;;;3.17;;
20844;SDS011;10583;49.084;8.646;2023-04-24T12:06:08;2.70;;;2.70;;
20844;SDS011;10583;49.084;8.646;2023-04-24T12:08:36;2.93;;;2.93;;
20844;SDS011;10583;49.084;8.646;2023-04-24T12:11:05;2.67;;;2.67;;
20844;SDS011;10583;49.084;8.646;2023-04-24T12:13:33;2.60;;;2.60;;
20844;SDS011;10583;49.084;8.646;2023-04-24T12:16:02;2.37;;;2.37;;
20844;SDS011;10583;49.084;8.646;2023-04-24T12:18:30;2.90;;;2.90;;
20844;SDS011;10583;49.084;8.646;2023-04-24T12:23:42;3.03;;;3.03;;
20844;SDS011;10583;49.084;8.646;2023-04-24T12:26:11;3.20;;;3.20;;
20844;SDS011;10583;49.084;8.646;2023-04-24T12:28:38;3.37;;;3.37;;
20844;SDS011;10583;49.084;8.646;2023-04-24T12:31:06;3.20;;;3.20;;
20844;SDS011;10583;49.084;8.646;2023-04-24T12:33:33;3.40;;;3.40;;
20844;SDS011;10583;49.084;8.646;2023-04-24T12:36:01;3.63;;;3.63;;
20844;SDS011;10583;49.084;8.646;2023-04-24T12:38:28;3.40;;;3.40;;
20844;SDS011;10583;49.084;8.646;2023-04-24T12:41:02;3.40;;;3.40;;
20844;SDS011;10583;49.084;8.646;2023-04-24T12:43:31;3.30;;;3.30;;
20844;SDS011;10583;49.084;8.646;2023-04-24T12:45:58;3.47;;;3.47;;
20844;SDS011;10583;49.084;8.646;2023-04-24T12:48:25;3.30;;;3.30;;
20844;SDS011;10583;49.084;8.646;2023-04-24T12:50:51;3.50;;;3.50;;
20844;SDS011;10583;49.084;8.646;2023-04-24T12:53:18;2.87;;;2.87;;
20844;SDS011;10583;49.084;8.646;2023-04-24T12:55:45;3.13;;;3.13;;
20844;SDS011;10583;49.084;8.646;2023-04-24T12:58:17;2.70;;;2.70;;
20844;SDS011;10583;49.084;8.646;2023-04-24T13:00:45;2.57;;;2.57;;
20844;SDS011;10583;49.084;8.646;2023-04-24T13:03:12;2.50;;;2.50;;
20844;SDS011;10583;49.084;8.646;2023-04-24T13:05:39;2.80;;;2.80;;
20844;SDS011;10583;49.084;8.646;2023-04-24T13:08:06;2.80;;;2.80;;
20844;SDS011;10583;49.084;8.646;2023-04-24T13:10:33;3.30;;;3.30;;
20844;SDS011;10583;49.084;8.646;2023-04-24T13:13:00;3.00;;;3.00;;
20844;SDS011;10583;49.084;8.646;2023-04-24T13:15:27;3.47;;;3.47;;
20844;SDS011;10583;49.084;8.646;2023-04-24T13:17:55;3.53;;;3.53;;
20844;SDS011;10583;49.084;8.646;2023-04-24T13:20:22;2.40;;;2.40;;
20844;SDS011;10583;49.084;8.646;2023-04-24T13:22:48;2.67;;;2.67;;
20844;SDS011;10583;49.084;8.646;2023-04-24T13:25:15;3.33;;;3.33;;
20844;SDS011;10583;49.084;8.646;2023-04-24T13:27:43;2.87;;;2.87;;
20844;SDS011;10583;49.084;8.646;2023-04-24T13:30:10;2.50;;;2.50;;
20844;SDS011;10583;49.084;8.646;2023-04-24T13:32:37;2.27;;;2.27;;
20844;SDS011;10583;49.084;8.646;2023-04-24T13:35:06;2.67;;;2.67;;
20844;SDS011;10583;49.084;8.646;2023-04-24T13:37:33;2.20;;;2.20;;
20844;SDS011;10583;49.084;8.646;2023-04-24T13:40:00;1.97;;;1.97;;
20844;SDS011;10583;49.084;8.646;2023-04-24T13:42:27;2.27;;;2.27;;
20844;SDS011;10583;49.084;8.646;2023-04-24T13:44:53;2.30;;;2.30;;
20844;SDS011;10583;49.084;8.646;2023-04-24T13:47:20;2.20;;;2.20;;
20844;SDS011;10583;49.084;8.646;2023-04-24T13:49:47;2.20;;;2.20;;
20844;SDS011;10583;49.084;8.646;2023-04-24T13:52:16;2.47;;;2.47;;
20844;SDS011;10583;49.084;8.646;2023-04-24T13:54:42;2.60;;;2.60;;
20844;SDS011;10583;49.084;8.646;2023-04-24T13:57:09;2.83;;;2.83;;
20844;SDS011;10583;49.084;8.646;2023-04-24T13:59:36;2.90;;;2.90;;
20844;SDS011;10583;49.084;8.646;2023-04-24T14:02:03;3.17;;;3.17;;
20844;SDS011;10583;49.084;8.646;2023-04-24T14:04:29;3.43;;;3.43;;
20844;SDS011;10583;49.084;8.646;2023-04-24T14:06:56;3.27;;;3.27;;
20844;SDS011;10583;49.084;8.646;2023-04-24T14:09:24;3.07;;;3.07;;
20844;SDS011;10583;49.084;8.646;2023-04-24T14:11:51;3.20;;;3.20;;
20844;SDS011;10583;49.084;8.646;2023-04-24T14:14:18;3.40;;;3.40;;
20844;SDS011;10583;49.084;8.646;2023-04-24T14:16:44;3.13;;;3.13;;
20844;SDS011;10583;49.084;8.646;2023-04-24T14:19:11;3.30;;;3.30;;
20844;SDS011;10583;49.084;8.646;2023-04-24T14:21:38;4.67;;;4.67;;
20844;SDS011;10583;49.084;8.646;2023-04-24T14:24:05;3.20;;;3.20;;
20844;SDS011;10583;49.084;8.646;2023-04-24T14:26:33;2.90;;;2.90;;
20844;SDS011;10583;49.084;8.646;2023-04-24T14:28:59;4.63;;;4.63;;
20844;SDS011;10583;49.084;8.646;2023-04-24T14:31:26;3.57;;;3.57;;
20844;SDS011;10583;49.084;8.646;2023-04-24T14:33:53;2.57;;;2.57;;
20844;SDS011;10583;49.084;8.646;2023-04-24T14:36:20;2.47;;;2.47;;
20844;SDS011;10583;49.084;8.646;2023-04-24T14:38:47;3.10;;;3.10;;
20844;SDS011;10583;49.084;8.646;2023-04-24T14:41:13;2.67;;;2.67;;
20844;SDS011;10583;49.084;8.646;2023-04-24T14:43:41;2.40;;;2.40;;
20844;SDS011;10583;49.084;8.646;2023-04-24T14:46:08;2.10;;;2.10;;
20844;SDS011;10583;49.084;8.646;2023-04-24T14:48:35;1.87;;;1.87;;
20844;SDS011;10583;49.084;8.646;2023-04-24T14:51:02;1.90;;;1.90;;
20844;SDS011;10583;49.084;8.646;2023-04-24T14:53:28;1.80;;;1.80;;
20844;SDS011;10583;49.084;8.646;2023-04-24T14:55:55;1.93;;;1.93;;
20844;SDS011;10583;49.084;8.646;2023-04-24T14:58:22;2.20;;;2.20;;
20844;SDS011;10583;49.084;8.646;2023-04-24T15:00:50;2.10;;;2.10;;
20844;SDS011;10583;49.084;8.646;2023-04-24T15:03:19;2.10;;;2.10;;